sensor_id;sensor_type;location;lat;lon;timestamp;pressure;altitude;pressure_sealevel;temperature;humidity
16255;BME280;8235;52.198;9.904;2023-07-02T00:01:57;99778.88;;;16.67;100.00
16255;BME280;8235;52.198;9.904;2023-07-02T00:04:24;99781.91;;;16.64;100.00
16255;BME280;8235;52.198;9.904;2023-07-02T00:06:51;99780.22;;;16.63;100.00
16255;BME280;8235;52.198;9.904;2023-07-02T00:09:17;99773.00;;;16.64;100.00
16255;BME280;8235;52.198;9.904;2023-07-02T00:11:45;99783.75;;;16.64;100.00
16255;BME280;8235;52.198;9.904;2023-07-02T00:14:12;99778.66;;;16.61;99.98
16255;BME280;8235;52.198;9.904;2023-07-02T00:16:43;99775.97;;;16.61;99.68
16255;BME280;8235;52.198;9.904;2023-07-02T00:19:11;99774.44;;;16.58;99.44
16255;BME280;8235;52.198;9.904;2023-07-02T00:21:37;99773.59;;;16.58;99.55
16255;BME280;8235;52.198;9.904;2023-07-02T00:24:05;99776.56;;;16.55;98.92
16255;BME280;8235;52.198;9.904;2023-07-02T00:26:32;99772.34;;;16.52;98.75
16255;BME280;8235;52.198;9.904;2023-07-02T00:28:58;99776.03;;;16.51;98.42
16255;BME280;8235;52.198;9.904;2023-07-02T00:31:25;99782.41;;;16.50;98.23
16255;BME280;8235;52.198;9.904;2023-07-02T00:33:53;99777.38;;;16.47;97.99
16255;BME280;8235;52.198;9.904;2023-07-02T00:36:19;99774.84;;;16.46;98.02
16255;BME280;8235;52.198;9.904;2023-07-02T00:38:47;99774.69;;;16.47;97.63
16255;BME280;8235;52.198;9.904;2023-07-02T00:41:14;99779.22;;;16.47;97.52
16255;BME280;8235;52.198;9.904;2023-07-02T00:43:41;99770.63;;;16.43;97.81
16255;BME280;8235;52.198;9.904;2023-07-02T00:46:11;99770.78;;;16.42;98.15
16255;BME280;8235;52.198;9.904;2023-07-02T00:48:39;99777.28;;;16.39;97.79
16255;BME280;8235;52.198;9.904;2023-07-02T00:51:09;99781.81;;;16.39;97.35
16255;BME280;8235;52.198;9.904;2023-07-02T00:53:36;99782.69;;;16.39;97.74
16255;BME280;8235;52.198;9.904;2023-07-02T00:56:04;99772.22;;;16.36;97.12
16255;BME280;8235;52.198;9.904;2023-07-02T00:58:31;99775.06;;;16.35;96.88
16255;BME280;8235;52.198;9.904;2023-07-02T01:00:58;99776.22;;;16.32;96.54
16255;BME280;8235;52.198;9.904;2023-07-02T01:03:25;99777.06;;;16.32;96.81
16255;BME280;8235;52.198;9.904;2023-07-02T01:05:51;99773.22;;;16.35;96.73
16255;BME280;8235;52.198;9.904;2023-07-02T01:08:19;99770.84;;;16.32;96.82
16255;BME280;8235;52.198;9.904;2023-07-02T01:10:46;99769.16;;;16.31;96.93
16255;BME280;8235;52.198;9.904;2023-07-02T01:13:16;99773.69;;;16.30;96.87
16255;BME280;8235;52.198;9.904;2023-07-02T01:15:44;99771.19;;;16.29;96.40
16255;BME280;8235;52.198;9.904;2023-07-02T01:18:11;99769.34;;;16.29;96.40
16255;BME280;8235;52.198;9.904;2023-07-02T01:20:41;99773.19;;;16.27;96.09
16255;BME280;8235;52.198;9.904;2023-07-02T01:23:08;99766.13;;;16.26;96.19
16255;BME280;8235;52.198;9.904;2023-07-02T01:25:36;99762.72;;;16.24;96.22
16255;BME280;8235;52.198;9.904;2023-07-02T01:28:02;99759.34;;;16.22;95.81
16255;BME280;8235;52.198;9.904;2023-07-02T01:30:29;99758.50;;;16.21;95.58
16255;BME280;8235;52.198;9.904;2023-07-02T01:32:56;99750.59;;;16.20;95.51
16255;BME280;8235;52.198;9.904;2023-07-02T01:35:22;99739.47;;;16.15;95.59
16255;BME280;8235;52.198;9.904;2023-07-02T01:37:50;99740.47;;;16.14;95.43
16255;BME280;8235;52.198;9.904;2023-07-02T01:40:17;99741.63;;;16.11;95.25
16255;BME280;8235;52.198;9.904;2023-07-02T01:42:44;99760.44;;;16.11;95.04
16255;BME280;8235;52.198;9.904;2023-07-02T01:45:10;99765.13;;;16.09;94.89
16255;BME280;8235;52.198;9.904;2023-07-02T01:47:37;99771.66;;;16.07;94.76
16255;BME280;8235;52.198;9.904;2023-07-02T01:50:04;99771.78;;;16.05;94.67
16255;BME280;8235;52.198;9.904;2023-07-02T01:52:31;99771.78;;;16.05;94.53
16255;BME280;8235;52.198;9.904;2023-07-02T01:55:01;99773.63;;;16.05;94.42
16255;BME280;8235;52.198;9.904;2023-07-02T01:57:27;99781.00;;;16.03;94.36
16255;BME280;8235;52.198;9.904;2023-07-02T01:59:55;99777.63;;;16.01;94.02
16255;BME280;8235;52.198;9.904;2023-07-02T02:02:22;99784.97;;;15.98;94.22
16255;BME280;8235;52.198;9.904;2023-07-02T02:04:49;99784.97;;;15.98;94.53
16255;BME280;8235;52.198;9.904;2023-07-02T02:07:15;99786.13;;;15.96;94.12
16255;BME280;8235;52.198;9.904;2023-07-02T02:09:42;99784.44;;;15.95;94.25
16255;BME280;8235;52.198;9.904;2023-07-02T02:12:10;99791.81;;;15.93;94.12
16255;BME280;8235;52.198;9.904;2023-07-02T02:14:36;99789.28;;;15.91;94.12
16255;BME280;8235;52.198;9.904;2023-07-02T02:17:03;99797.78;;;15.87;94.33
16255;BME280;8235;52.198;9.904;2023-07-02T02:19:29;99794.72;;;15.82;94.23
16255;BME280;8235;52.198;9.904;2023-07-02T02:21:56;99796.69;;;15.80;94.79
16255;BME280;8235;52.198;9.904;2023-07-02T02:24:23;99801.38;;;15.78;95.07
16255;BME280;8235;52.198;9.904;2023-07-02T02:26:49;99793.63;;;15.75;95.47
16255;BME280;8235;52.198;9.904;2023-07-02T02:29:17;99794.63;;;15.74;95.74
16255;BME280;8235;52.198;9.904;2023-07-02T02:31:44;99798.16;;;15.74;96.06
16255;BME280;8235;52.198;9.904;2023-07-02T02:34:10;99802.84;;;15.72;96.55
16255;BME280;8235;52.198;9.904;2023-07-02T02:36:37;99795.78;;;15.71;96.78
16255;BME280;8235;52.198;9.904;2023-07-02T02:39:03;99801.28;;;15.70;97.18
16255;BME280;8235;52.198;9.904;2023-07-02T02:41:30;99799.44;;;15.70;97.37
16255;BME280;8235;52.198;9.904;2023-07-02T02:43:57;99799.31;;;15.72;97.40
16255;BME280;8235;52.198;9.904;2023-07-02T02:46:25;99799.31;;;15.72;97.60
16255;BME280;8235;52.198;9.904;2023-07-02T02:48:51;99791.41;;;15.70;98.03
16255;BME280;8235;52.198;9.904;2023-07-02T02:51:18;99797.63;;;15.71;98.32
16255;BME280;8235;52.198;9.904;2023-07-02T02:53:45;99795.06;;;15.69;98.74
16255;BME280;8235;52.198;9.904;2023-07-02T02:56:11;99795.78;;;15.71;99.06
16255;BME280;8235;52.198;9.904;2023-07-02T02:58:39;99786.03;;;15.70;99.32
16255;BME280;8235;52.198;9.904;2023-07-02T03:01:06;99787.72;;;15.71;99.92
16255;BME280;8235;52.198;9.904;2023-07-02T03:03:38;99786.72;;;15.72;100.00
16255;BME280;8235;52.198;9.904;2023-07-02T03:06:06;99781.34;;;15.72;100.00
16255;BME280;8235;52.198;9.904;2023-07-02T03:08:32;99785.19;;;15.70;100.00
16255;BME280;8235;52.198;9.904;2023-07-02T03:10:59;99792.25;;;15.71;100.00
16255;BME280;8235;52.198;9.904;2023-07-02T03:13:25;99788.72;;;15.70;100.00
16255;BME280;8235;52.198;9.904;2023-07-02T03:15:52;99786.03;;;15.70;100.00
16255;BME280;8235;52.198;9.904;2023-07-02T03:18:18;99782.34;;;15.71;100.00
16255;BME280;8235;52.198;9.904;2023-07-02T03:20:46;99786.72;;;15.72;100.00
16255;BME280;8235;52.198;9.904;2023-07-02T03:23:13;99786.72;;;15.72;100.00
16255;BME280;8235;52.198;9.904;2023-07-02T03:25:39;99793.09;;;15.71;100.00
16255;BME280;8235;52.198;9.904;2023-07-02T03:28:06;99779.66;;;15.71;100.00
16255;BME280;8235;52.198;9.904;2023-07-02T03:30:33;99780.50;;;15.72;100.00
16255;BME280;8235;52.198;9.904;2023-07-02T03:32:59;99779.53;;;15.73;100.00
16255;BME280;8235;52.198;9.904;2023-07-02T03:35:26;99785.72;;;15.73;100.00
16255;BME280;8235;52.198;9.904;2023-07-02T03:37:54;99788.41;;;15.73;100.00
16255;BME280;8235;52.198;9.904;2023-07-02T03:40:20;99776.00;;;15.72;100.00
16255;BME280;8235;52.198;9.904;2023-07-02T03:42:47;99781.34;;;15.72;100.00
16255;BME280;8235;52.198;9.904;2023-07-02T03:45:14;99781.34;;;15.72;100.00
16255;BME280;8235;52.198;9.904;2023-07-02T03:47:40;99783.19;;;15.72;100.00
16255;BME280;8235;52.198;9.904;2023-07-02T03:50:08;99783.34;;;15.70;100.00
16255;BME280;8235;52.198;9.904;2023-07-02T03:52:35;99776.97;;;15.71;100.00
16255;BME280;8235;52.198;9.904;2023-07-02T03:55:04;99779.53;;;15.73;100.00
16255;BME280;8235;52.198;9.904;2023-07-02T03:57:30;99781.22;;;15.74;100.00
16255;BME280;8235;52.198;9.904;2023-07-02T03:59:57;99781.22;;;15.74;100.00
16255;BME280;8235;52.198;9.904;2023-07-02T04:02:23;99788.28;;;15.75;100.00
16255;BME280;8235;52.198;9.904;2023-07-02T04:04:50;99792.78;;;15.74;100.00
16255;BME280;8235;52.198;9.904;2023-07-02T04:07:16;99788.13;;;15.76;100.00
16255;BME280;8235;52.198;9.904;2023-07-02T04:09:43;99784.41;;;15.77;100.00
16255;BME280;8235;52.198;9.904;2023-07-02T04:12:11;99786.94;;;15.79;100.00
16255;BME280;8235;52.198;9.904;2023-07-02T04:14:37;99795.84;;;15.79;100.00
16255;BME280;8235;52.198;9.904;2023-07-02T04:17:05;99796.69;;;15.80;100.00
16255;BME280;8235;52.198;9.904;2023-07-02T04:19:31;99802.06;;;15.80;100.00
16255;BME280;8235;52.198;9.904;2023-07-02T04:21:58;99788.50;;;15.81;100.00
16255;BME280;8235;52.198;9.904;2023-07-02T04:24:24;99791.88;;;15.83;100.00
16255;BME280;8235;52.198;9.904;2023-07-02T04:26:52;99793.56;;;15.84;100.00
16255;BME280;8235;52.198;9.904;2023-07-02T04:29:20;99796.94;;;15.86;100.00
16255;BME280;8235;52.198;9.904;2023-07-02T04:31:47;99803.16;;;15.87;100.00
16255;BME280;8235;52.198;9.904;2023-07-02T04:34:13;99785.91;;;15.89;100.00
16255;BME280;8235;52.198;9.904;2023-07-02T04:36:40;99805.56;;;15.90;100.00
16255;BME280;8235;52.198;9.904;2023-07-02T04:39:08;99802.72;;;15.91;100.00
16255;BME280;8235;52.198;9.904;2023-07-02T04:41:36;99800.88;;;15.92;100.00
16255;BME280;8235;52.198;9.904;2023-07-02T04:44:02;99805.91;;;15.95;100.00
16255;BME280;8235;52.198;9.904;2023-07-02T04:46:30;99809.16;;;15.98;100.00
16255;BME280;8235;52.198;9.904;2023-07-02T04:48:57;99816.34;;;15.98;100.00
16255;BME280;8235;52.198;9.904;2023-07-02T04:51:23;99822.44;;;16.00;100.00
16255;BME280;8235;52.198;9.904;2023-07-02T04:53:50;99832.03;;;16.03;100.00
16255;BME280;8235;52.198;9.904;2023-07-02T04:56:17;99855.34;;;16.02;100.00
16255;BME280;8235;52.198;9.904;2023-07-02T04:58:43;99875.44;;;15.98;100.00
16255;BME280;8235;52.198;9.904;2023-07-02T05:01:10;99853.78;;;15.82;97.87
16255;BME280;8235;52.198;9.904;2023-07-02T05:03:38;99855.00;;;15.60;95.86
16255;BME280;8235;52.198;9.904;2023-07-02T05:06:05;99867.19;;;15.45;94.63
16255;BME280;8235;52.198;9.904;2023-07-02T05:08:32;99864.16;;;15.30;93.83
16255;BME280;8235;52.198;9.904;2023-07-02T05:10:58;99850.78;;;15.20;93.51
16255;BME280;8235;52.198;9.904;2023-07-02T05:13:25;99861.38;;;15.12;93.49
16255;BME280;8235;52.198;9.904;2023-07-02T05:15:51;99850.56;;;15.04;93.86
16255;BME280;8235;52.198;9.904;2023-07-02T05:18:18;99857.47;;;14.97;94.11
16255;BME280;8235;52.198;9.904;2023-07-02T05:20:46;99856.06;;;14.93;94.28
16255;BME280;8235;52.198;9.904;2023-07-02T05:23:12;99852.28;;;14.86;94.41
16255;BME280;8235;52.198;9.904;2023-07-02T05:25:39;99853.56;;;14.82;94.20
16255;BME280;8235;52.198;9.904;2023-07-02T05:28:05;99861.44;;;14.74;94.31
16255;BME280;8235;52.198;9.904;2023-07-02T05:30:32;99860.75;;;14.72;94.33
16255;BME280;8235;52.198;9.904;2023-07-02T05:32:58;99846.94;;;14.67;94.17
16255;BME280;8235;52.198;9.904;2023-07-02T05:35:25;99849.75;;;14.65;94.53
16255;BME280;8235;52.198;9.904;2023-07-02T05:37:53;99848.22;;;14.63;94.51
16255;BME280;8235;52.198;9.904;2023-07-02T05:40:19;99856.38;;;14.61;94.92
16255;BME280;8235;52.198;9.904;2023-07-02T05:42:46;99852.72;;;14.62;95.08
16255;BME280;8235;52.198;9.904;2023-07-02T05:45:12;99851.88;;;14.62;95.85
16255;BME280;8235;52.198;9.904;2023-07-02T05:47:39;99865.13;;;14.63;96.31
16255;BME280;8235;52.198;9.904;2023-07-02T05:50:08;99870.22;;;14.66;97.23
16255;BME280;8235;52.198;9.904;2023-07-02T05:52:34;99874.44;;;14.69;97.29
16255;BME280;8235;52.198;9.904;2023-07-02T05:55:03;99874.97;;;14.72;98.12
16255;BME280;8235;52.198;9.904;2023-07-02T05:57:30;99875.69;;;14.74;98.40
16255;BME280;8235;52.198;9.904;2023-07-02T05:59:56;99879.09;;;14.76;98.80
16255;BME280;8235;52.198;9.904;2023-07-02T06:02:23;99875.00;;;14.82;99.27
16255;BME280;8235;52.198;9.904;2023-07-02T06:04:49;99882.75;;;14.85;99.39
16255;BME280;8235;52.198;9.904;2023-07-02T06:07:16;99879.09;;;14.86;99.83
16255;BME280;8235;52.198;9.904;2023-07-02T06:09:42;99880.31;;;14.91;100.00
16255;BME280;8235;52.198;9.904;2023-07-02T06:12:10;99872.72;;;14.97;100.00
16255;BME280;8235;52.198;9.904;2023-07-02T06:14:37;99881.19;;;15.02;100.00
16255;BME280;8235;52.198;9.904;2023-07-02T06:17:04;99885.94;;;15.08;100.00
16255;BME280;8235;52.198;9.904;2023-07-02T06:19:33;99885.94;;;15.17;100.00
16255;BME280;8235;52.198;9.904;2023-07-02T06:21:59;99886.47;;;15.31;100.00
16255;BME280;8235;52.198;9.904;2023-07-02T06:24:26;99890.34;;;15.46;100.00
16255;BME280;8235;52.198;9.904;2023-07-02T06:26:52;99888.47;;;15.66;100.00
16255;BME280;8235;52.198;9.904;2023-07-02T06:29:22;99887.28;;;15.78;100.00
16255;BME280;8235;52.198;9.904;2023-07-02T06:31:48;99878.63;;;15.84;99.46
16255;BME280;8235;52.198;9.904;2023-07-02T06:34:15;99877.44;;;15.96;99.60
16255;BME280;8235;52.198;9.904;2023-07-02T06:36:42;99891.88;;;16.13;99.57
16255;BME280;8235;52.198;9.904;2023-07-02T06:39:09;99888.41;;;16.30;99.13
16255;BME280;8235;52.198;9.904;2023-07-02T06:41:35;99889.22;;;16.48;98.34
16255;BME280;8235;52.198;9.904;2023-07-02T06:44:02;99876.84;;;16.65;97.52
16255;BME280;8235;52.198;9.904;2023-07-02T06:46:30;99891.97;;;16.84;96.76
16255;BME280;8235;52.198;9.904;2023-07-02T06:48:57;99891.41;;;16.98;94.01
16255;BME280;8235;52.198;9.904;2023-07-02T06:51:25;99897.22;;;17.11;93.13
16255;BME280;8235;52.198;9.904;2023-07-02T06:53:52;99900.16;;;17.26;91.08
16255;BME280;8235;52.198;9.904;2023-07-02T06:56:19;99900.94;;;17.36;89.29
16255;BME280;8235;52.198;9.904;2023-07-02T06:58:45;99902.50;;;17.47;87.90
16255;BME280;8235;52.198;9.904;2023-07-02T07:01:12;99909.13;;;17.60;87.43
16255;BME280;8235;52.198;9.904;2023-07-02T07:03:40;99917.63;;;17.74;86.20
16255;BME280;8235;52.198;9.904;2023-07-02T07:06:07;99912.81;;;17.85;84.66
16255;BME280;8235;52.198;9.904;2023-07-02T07:08:37;99918.59;;;17.98;84.09
16255;BME280;8235;52.198;9.904;2023-07-02T07:11:03;99918.13;;;18.11;83.17
16255;BME280;8235;52.198;9.904;2023-07-02T07:13:30;99921.91;;;18.26;83.27
16255;BME280;8235;52.198;9.904;2023-07-02T07:15:56;99925.97;;;18.38;81.76
16255;BME280;8235;52.198;9.904;2023-07-02T07:18:23;99925.81;;;18.48;79.96
16255;BME280;8235;52.198;9.904;2023-07-02T07:20:51;99933.59;;;18.51;78.31
16255;BME280;8235;52.198;9.904;2023-07-02T07:23:18;99928.09;;;18.61;77.62
16255;BME280;8235;52.198;9.904;2023-07-02T07:25:45;99927.06;;;18.70;76.46
16255;BME280;8235;52.198;9.904;2023-07-02T07:28:11;99928.25;;;18.84;75.75
16255;BME280;8235;52.198;9.904;2023-07-02T07:30:41;99929.63;;;18.96;75.00
16255;BME280;8235;52.198;9.904;2023-07-02T07:33:07;99935.53;;;19.07;72.95
16255;BME280;8235;52.198;9.904;2023-07-02T07:35:34;99940.75;;;19.17;71.90
16255;BME280;8235;52.198;9.904;2023-07-02T07:38:02;99935.69;;;19.22;68.59
16255;BME280;8235;52.198;9.904;2023-07-02T07:40:28;99939.22;;;19.23;67.24
16255;BME280;8235;52.198;9.904;2023-07-02T07:42:55;99941.44;;;19.27;67.19
16255;BME280;8235;52.198;9.904;2023-07-02T07:45:22;99952.56;;;19.32;67.62
16255;BME280;8235;52.198;9.904;2023-07-02T07:47:48;99944.78;;;19.37;67.18
16255;BME280;8235;52.198;9.904;2023-07-02T07:50:15;99933.63;;;19.40;64.97
16255;BME280;8235;52.198;9.904;2023-07-02T07:52:42;99935.50;;;19.40;63.35
16255;BME280;8235;52.198;9.904;2023-07-02T07:55:10;99941.91;;;19.47;62.44
16255;BME280;8235;52.198;9.904;2023-07-02T07:57:37;99942.91;;;19.54;60.48
16255;BME280;8235;52.198;9.904;2023-07-02T08:00:04;99954.91;;;19.60;59.32
16255;BME280;8235;52.198;9.904;2023-07-02T08:02:33;99953.03;;;19.68;59.05
16255;BME280;8235;52.198;9.904;2023-07-02T08:04:59;99947.44;;;19.78;58.86
16255;BME280;8235;52.198;9.904;2023-07-02T08:07:26;99959.72;;;19.89;58.06
16255;BME280;8235;52.198;9.904;2023-07-02T08:09:52;99959.72;;;19.97;57.00
16255;BME280;8235;52.198;9.904;2023-07-02T08:12:20;99959.31;;;20.08;55.95
16255;BME280;8235;52.198;9.904;2023-07-02T08:14:47;99964.34;;;20.19;55.46
16255;BME280;8235;52.198;9.904;2023-07-02T08:17:14;99966.84;;;20.29;54.95
16255;BME280;8235;52.198;9.904;2023-07-02T08:19:40;99968.19;;;20.41;56.17
16255;BME280;8235;52.198;9.904;2023-07-02T08:22:07;99969.63;;;20.52;56.65
16255;BME280;8235;52.198;9.904;2023-07-02T08:24:33;99963.69;;;20.56;55.33
16255;BME280;8235;52.198;9.904;2023-07-02T08:27:00;99984.00;;;20.52;55.55
16255;BME280;8235;52.198;9.904;2023-07-02T08:29:29;99981.31;;;20.44;54.34
16255;BME280;8235;52.198;9.904;2023-07-02T08:31:56;99979.16;;;20.31;54.22
16255;BME280;8235;52.198;9.904;2023-07-02T08:34:22;99982.09;;;20.22;54.28
16255;BME280;8235;52.198;9.904;2023-07-02T08:36:51;99984.47;;;20.17;54.38
16255;BME280;8235;52.198;9.904;2023-07-02T08:39:18;99988.88;;;20.09;54.31
16255;BME280;8235;52.198;9.904;2023-07-02T08:41:45;99997.16;;;20.08;54.39
16255;BME280;8235;52.198;9.904;2023-07-02T08:44:12;99993.31;;;20.02;54.37
16255;BME280;8235;52.198;9.904;2023-07-02T08:46:42;100000.06;;;19.98;53.60
16255;BME280;8235;52.198;9.904;2023-07-02T08:49:09;100000.47;;;19.87;52.90
16255;BME280;8235;52.198;9.904;2023-07-02T08:51:36;100003.16;;;19.79;53.03
16255;BME280;8235;52.198;9.904;2023-07-02T08:54:03;100004.22;;;19.70;53.36
16255;BME280;8235;52.198;9.904;2023-07-02T08:56:30;100003.88;;;19.57;53.26
16255;BME280;8235;52.198;9.904;2023-07-02T08:58:56;100014.34;;;19.52;53.62
16255;BME280;8235;52.198;9.904;2023-07-02T09:01:23;100013.81;;;19.48;54.40
16255;BME280;8235;52.198;9.904;2023-07-02T09:03:51;100005.88;;;19.55;55.26
16255;BME280;8235;52.198;9.904;2023-07-02T09:06:18;100005.22;;;19.61;55.18
16255;BME280;8235;52.198;9.904;2023-07-02T09:08:45;100002.34;;;19.62;54.30
16255;BME280;8235;52.198;9.904;2023-07-02T09:11:13;100003.34;;;19.53;53.11
16255;BME280;8235;52.198;9.904;2023-07-02T09:13:44;100017.91;;;19.52;53.60
16255;BME280;8235;52.198;9.904;2023-07-02T09:16:21;100013.66;;;19.58;54.04
16255;BME280;8235;52.198;9.904;2023-07-02T09:18:59;100004.03;;;19.63;54.07
16255;BME280;8235;52.198;9.904;2023-07-02T09:21:27;100007.06;;;19.68;53.72
16255;BME280;8235;52.198;9.904;2023-07-02T09:23:54;100000.47;;;19.71;53.53
16255;BME280;8235;52.198;9.904;2023-07-02T09:26:21;99999.97;;;19.75;52.81
16255;BME280;8235;52.198;9.904;2023-07-02T09:28:48;100000.78;;;19.84;52.71
16255;BME280;8235;52.198;9.904;2023-07-02T09:31:15;100009.38;;;19.96;52.07
16255;BME280;8235;52.198;9.904;2023-07-02T09:33:42;100012.22;;;20.02;50.77
16255;BME280;8235;52.198;9.904;2023-07-02T09:36:11;100004.25;;;20.09;50.63
16255;BME280;8235;52.198;9.904;2023-07-02T09:38:38;100013.22;;;20.09;49.03
16255;BME280;8235;52.198;9.904;2023-07-02T09:41:07;100011.53;;;20.08;48.40
16255;BME280;8235;52.198;9.904;2023-07-02T09:43:34;100019.78;;;20.15;48.88
16255;BME280;8235;52.198;9.904;2023-07-02T09:46:01;100009.81;;;20.24;48.66
16255;BME280;8235;52.198;9.904;2023-07-02T09:48:29;100011.44;;;20.33;48.41
16255;BME280;8235;52.198;9.904;2023-07-02T09:51:00;100022.91;;;20.43;48.35
16255;BME280;8235;52.198;9.904;2023-07-02T09:53:28;100012.06;;;20.51;47.98
16255;BME280;8235;52.198;9.904;2023-07-02T09:55:55;100013.34;;;20.63;47.87
16255;BME280;8235;52.198;9.904;2023-07-02T09:58:22;100015.72;;;20.66;46.56
16255;BME280;8235;52.198;9.904;2023-07-02T10:00:49;100016.38;;;20.68;45.62
16255;BME280;8235;52.198;9.904;2023-07-02T10:03:16;100046.13;;;20.76;46.46
16255;BME280;8235;52.198;9.904;2023-07-02T10:05:42;100012.91;;;20.83;45.47
16255;BME280;8235;52.198;9.904;2023-07-02T10:08:13;100019.66;;;20.87;45.21
16255;BME280;8235;52.198;9.904;2023-07-02T10:10:41;100022.50;;;20.93;45.45
16255;BME280;8235;52.198;9.904;2023-07-02T10:13:08;100022.44;;;21.01;45.75
16255;BME280;8235;52.198;9.904;2023-07-02T10:15:35;100023.22;;;21.10;45.42
16255;BME280;8235;52.198;9.904;2023-07-02T10:18:03;100028.44;;;21.20;46.25
16255;BME280;8235;52.198;9.904;2023-07-02T10:20:35;100030.34;;;21.34;45.71
16255;BME280;8235;52.198;9.904;2023-07-02T10:23:03;100043.13;;;21.48;45.65
16255;BME280;8235;52.198;9.904;2023-07-02T10:25:31;100033.41;;;21.54;43.75
16255;BME280;8235;52.198;9.904;2023-07-02T10:28:02;100038.16;;;21.52;43.26
16255;BME280;8235;52.198;9.904;2023-07-02T10:30:40;100041.03;;;21.50;43.52
16255;BME280;8235;52.198;9.904;2023-07-02T10:33:08;100035.72;;;21.42;42.04
16255;BME280;8235;52.198;9.904;2023-07-02T10:35:35;100033.91;;;21.34;42.65
16255;BME280;8235;52.198;9.904;2023-07-02T10:38:02;100048.34;;;21.27;43.12
16255;BME280;8235;52.198;9.904;2023-07-02T10:40:29;100045.34;;;21.22;43.78
16255;BME280;8235;52.198;9.904;2023-07-02T10:42:56;100047.50;;;21.26;44.75
16255;BME280;8235;52.198;9.904;2023-07-02T10:45:32;100030.91;;;21.29;44.77
16255;BME280;8235;52.198;9.904;2023-07-02T10:48:01;100037.25;;;21.36;44.92
16255;BME280;8235;52.198;9.904;2023-07-02T10:50:28;100040.75;;;21.45;44.57
16255;BME280;8235;52.198;9.904;2023-07-02T10:52:54;100039.38;;;21.49;43.35
16255;BME280;8235;52.198;9.904;2023-07-02T10:55:23;100036.28;;;21.52;42.87
16255;BME280;8235;52.198;9.904;2023-07-02T10:57:51;100036.53;;;21.65;42.71
16255;BME280;8235;52.198;9.904;2023-07-02T11:00:28;100028.78;;;21.77;41.69
16255;BME280;8235;52.198;9.904;2023-07-02T11:02:56;100030.66;;;21.91;41.98
16255;BME280;8235;52.198;9.904;2023-07-02T11:05:23;100038.72;;;21.99;40.95
16255;BME280;8235;52.198;9.904;2023-07-02T11:07:50;100036.31;;;22.04;40.85
16255;BME280;8235;52.198;9.904;2023-07-02T11:10:22;100040.16;;;22.10;41.27
16255;BME280;8235;52.198;9.904;2023-07-02T11:12:49;100039.06;;;22.19;41.13
16255;BME280;8235;52.198;9.904;2023-07-02T11:15:16;100045.88;;;22.30;41.68
16255;BME280;8235;52.198;9.904;2023-07-02T11:17:43;100041.41;;;22.37;40.76
16255;BME280;8235;52.198;9.904;2023-07-02T11:20:13;100042.06;;;22.39;38.77
16255;BME280;8235;52.198;9.904;2023-07-02T11:22:40;100053.47;;;22.34;38.39
16255;BME280;8235;52.198;9.904;2023-07-02T11:25:13;100043.44;;;22.35;39.10
16255;BME280;8235;52.198;9.904;2023-07-02T11:27:40;100053.09;;;22.37;38.90
16255;BME280;8235;52.198;9.904;2023-07-02T11:30:07;100052.44;;;22.35;39.04
16255;BME280;8235;52.198;9.904;2023-07-02T11:32:46;100042.13;;;22.31;39.56
16255;BME280;8235;52.198;9.904;2023-07-02T11:35:16;100047.56;;;22.31;40.17
16255;BME280;8235;52.198;9.904;2023-07-02T11:37:43;100058.03;;;22.34;40.09
16255;BME280;8235;52.198;9.904;2023-07-02T11:40:11;100051.22;;;22.38;40.30
16255;BME280;8235;52.198;9.904;2023-07-02T11:42:38;100049.41;;;22.45;39.81
16255;BME280;8235;52.198;9.904;2023-07-02T11:45:06;100048.03;;;22.49;38.60
16255;BME280;8235;52.198;9.904;2023-07-02T11:47:32;100052.69;;;22.55;39.30
16255;BME280;8235;52.198;9.904;2023-07-02T11:49:59;100055.47;;;22.62;39.02
16255;BME280;8235;52.198;9.904;2023-07-02T11:52:27;100061.09;;;22.60;38.73
16255;BME280;8235;52.198;9.904;2023-07-02T11:54:53;100052.53;;;22.57;39.12
16255;BME280;8235;52.198;9.904;2023-07-02T11:57:20;100059.81;;;22.56;39.76
16255;BME280;8235;52.198;9.904;2023-07-02T11:59:48;100064.84;;;22.59;40.23
16255;BME280;8235;52.198;9.904;2023-07-02T12:02:15;100065.88;;;22.58;40.30
16255;BME280;8235;52.198;9.904;2023-07-02T12:04:41;100070.44;;;22.58;39.75
16255;BME280;8235;52.198;9.904;2023-07-02T12:07:08;100056.50;;;22.61;40.06
16255;BME280;8235;52.198;9.904;2023-07-02T12:09:36;100064.84;;;22.59;39.45
16255;BME280;8235;52.198;9.904;2023-07-02T12:12:03;100063.81;;;22.60;39.00
16255;BME280;8235;52.198;9.904;2023-07-02T12:14:30;100071.22;;;22.51;38.46
16255;BME280;8235;52.198;9.904;2023-07-02T12:16:56;100054.00;;;22.44;38.65
16255;BME280;8235;52.198;9.904;2023-07-02T12:19:23;100055.63;;;22.39;39.11
16255;BME280;8235;52.198;9.904;2023-07-02T12:21:50;100064.78;;;22.38;39.27
16255;BME280;8235;52.198;9.904;2023-07-02T12:24:16;100064.78;;;22.38;40.02
16255;BME280;8235;52.198;9.904;2023-07-02T12:26:44;100068.78;;;22.42;40.56
16255;BME280;8235;52.198;9.904;2023-07-02T12:29:11;100060.38;;;22.51;40.86
16255;BME280;8235;52.198;9.904;2023-07-02T12:31:37;100070.44;;;22.58;40.62
16255;BME280;8235;52.198;9.904;2023-07-02T12:34:04;100069.25;;;22.60;39.85
16255;BME280;8235;52.198;9.904;2023-07-02T12:36:30;100070.56;;;22.64;39.89
16255;BME280;8235;52.198;9.904;2023-07-02T12:38:57;100081.78;;;22.61;38.96
16255;BME280;8235;52.198;9.904;2023-07-02T12:41:23;100076.34;;;22.61;39.19
16255;BME280;8235;52.198;9.904;2023-07-02T12:43:51;100079.66;;;22.57;38.86
16255;BME280;8235;52.198;9.904;2023-07-02T12:46:17;100085.09;;;22.57;39.60
16255;BME280;8235;52.198;9.904;2023-07-02T12:48:44;100099.28;;;22.59;39.37
16255;BME280;8235;52.198;9.904;2023-07-02T12:51:10;100085.94;;;22.57;38.68
16255;BME280;8235;52.198;9.904;2023-07-02T12:53:37;100080.09;;;22.60;39.47
16255;BME280;8235;52.198;9.904;2023-07-02T12:56:04;100091.91;;;22.67;38.93
16255;BME280;8235;52.198;9.904;2023-07-02T12:58:31;100095.94;;;22.71;38.94
16255;BME280;8235;52.198;9.904;2023-07-02T13:00:58;100084.78;;;22.81;39.35
16255;BME280;8235;52.198;9.904;2023-07-02T13:03:25;100091.63;;;22.92;39.17
16255;BME280;8235;52.198;9.904;2023-07-02T13:05:51;100089.63;;;23.00;39.46